createdAt,value
2023-05-10T00:00:09.429Z,0
2023-05-10T00:05:08.895Z,0
2023-05-10T00:10:08.923Z,0
2023-05-10T00:15:08.006Z,0
2023-05-10T00:20:08.023Z,0
2023-05-10T00:25:08.060Z,0
2023-05-10T00:30:08.097Z,0
2023-05-10T00:35:08.130Z,0
2023-05-10T00:40:08.138Z,0
2023-05-10T00:45:08.126Z,0
2023-05-10T00:50:08.182Z,0
2023-05-10T00:55:08.172Z,0
2023-05-10T01:00:08.191Z,0
2023-05-10T01:05:08.858Z,0
2023-05-10T01:10:07.956Z,0
2023-05-10T01:15:07.942Z,0
2023-05-10T01:20:07.948Z,0
2023-05-10T01:25:07.964Z,0
2023-05-10T01:30:15.694Z,0
2023-05-10T01:35:08.904Z,0
2023-05-10T01:40:08.949Z,0
2023-05-10T01:45:07.930Z,0
2023-05-10T01:50:16.060Z,0
2023-05-10T01:55:08.365Z,0
2023-05-10T02:00:08.363Z,0
2023-05-10T02:05:08.370Z,0
2023-05-10T02:10:09.728Z,0
2023-05-10T02:15:10.735Z,0
2023-05-10T02:20:08.727Z,0
2023-05-10T02:25:08.732Z,0
2023-05-10T02:30:08.719Z,0
2023-05-10T02:35:08.702Z,0
2023-05-10T02:40:08.672Z,0
2023-05-10T02:45:08.682Z,0
2023-05-10T02:50:08.700Z,0
2023-05-10T02:55:08.710Z,0
2023-05-10T03:00:08.718Z,0
2023-05-10T03:05:08.724Z,0
2023-05-10T03:10:08.723Z,0
2023-05-10T03:15:08.725Z,0
2023-05-10T03:20:08.773Z,1
2023-05-10T03:25:08.780Z,1
2023-05-10T03:30:08.749Z,7
2023-05-10T03:35:08.775Z,7
2023-05-10T03:40:08.779Z,25
2023-05-10T03:45:08.761Z,33
2023-05-10T03:50:08.798Z,42
2023-05-10T03:55:08.887Z,56
2023-05-10T04:00:08.902Z,68
2023-05-10T04:05:03.039Z,68
2023-05-10T04:10:02.156Z,325
2023-05-10T04:15:02.222Z,325
2023-05-10T04:20:02.326Z,346
2023-05-10T04:25:02.311Z,346
2023-05-10T04:30:02.398Z,551
2023-05-10T04:35:02.521Z,551
2023-05-10T04:40:22.437Z,856
2023-05-10T04:45:08.438Z,856
2023-05-10T04:50:08.433Z,602
2023-05-10T04:55:08.433Z,602
2023-05-10T05:00:08.432Z,1000
2023-05-10T05:05:08.421Z,1000
2023-05-10T05:10:08.428Z,1000
2023-05-10T05:15:09.762Z,2000
2023-05-10T05:20:08.954Z,1000
2023-05-10T05:25:07.998Z,1000
2023-05-10T05:30:08.015Z,1000
2023-05-10T05:35:08.004Z,1000
2023-05-10T05:40:08.015Z,1000
2023-05-10T05:45:08.017Z,1000
2023-05-10T05:50:08.040Z,1000
2023-05-10T05:55:08.117Z,3000
2023-05-10T06:00:08.144Z,3000
2023-05-10T06:05:08.133Z,3000
2023-05-10T06:10:08.120Z,4000
2023-05-10T06:15:08.116Z,4000
2023-05-10T06:20:08.136Z,3000
2023-05-10T06:25:08.152Z,3000
2023-05-10T06:30:12.833Z,3000
2023-05-10T06:35:08.533Z,3000
2023-05-10T06:40:08.648Z,5000
2023-05-10T06:45:08.695Z,5000
2023-05-10T06:50:08.712Z,7000
2023-05-10T06:55:08.764Z,7000
2023-05-10T07:00:08.801Z,13000
2023-05-10T07:05:08.879Z,13000
2023-05-10T07:10:07.975Z,11000
2023-05-10T07:15:08.019Z,11000
2023-05-10T07:20:08.028Z,13000
2023-05-10T07:25:08.008Z,13000
2023-05-10T07:30:08.026Z,14000
2023-05-10T07:35:08.027Z,14000
2023-05-10T07:40:08.117Z,12000
2023-05-10T07:45:08.124Z,12000
2023-05-10T07:50:08.173Z,20000
2023-05-10T07:55:02.350Z,20000
2023-05-10T08:00:02.528Z,17000
2023-05-10T08:05:02.798Z,17000
2023-05-10T08:10:02.925Z,7000
2023-05-10T08:15:03.050Z,7000
2023-05-10T08:20:02.428Z,14000
2023-05-10T08:25:02.581Z,14000
2023-05-10T08:30:02.719Z,3000
2023-05-10T08:35:02.935Z,3000
2023-05-10T08:40:02.085Z,6000
2023-05-10T08:45:02.179Z,8000
2023-05-10T08:50:02.221Z,6000
2023-05-10T08:55:02.285Z,13000
2023-05-10T09:00:02.420Z,17000
2023-05-10T09:05:02.674Z,17000
2023-05-10T09:10:02.864Z,12000
2023-05-10T09:15:03.106Z,12000
2023-05-10T09:20:02.402Z,16000
2023-05-10T09:25:02.624Z,16000
2023-05-10T09:30:02.980Z,12000
2023-05-10T09:35:02.119Z,10000
2023-05-10T09:40:02.310Z,8000
2023-05-10T09:45:02.379Z,10000
2023-05-10T09:50:02.599Z,9000
2023-05-10T09:55:02.804Z,7000
2023-05-10T10:00:03.026Z,12000
2023-05-10T10:05:02.202Z,14000
2023-05-10T10:10:02.419Z,15000
2023-05-10T10:15:02.512Z,20000
2023-05-10T10:20:02.667Z,16000
2023-05-10T10:25:03.224Z,16000
2023-05-10T10:30:02.688Z,14000
2023-05-10T10:35:02.832Z,14000
2023-05-10T10:40:02.972Z,15000
2023-05-10T10:45:02.107Z,19000
2023-05-10T10:50:02.353Z,19000
2023-05-10T10:55:11.014Z,20000
2023-05-10T11:00:02.256Z,18000
2023-05-10T11:05:02.556Z,18000
2023-05-10T11:10:02.696Z,9000
2023-05-10T11:15:02.828Z,9000
2023-05-10T11:20:03.998Z,6000
2023-05-10T11:25:02.092Z,6000
2023-05-10T11:30:13.640Z,8000
2023-05-10T11:35:02.947Z,7000
2023-05-10T11:40:02.109Z,10000
2023-05-10T11:45:02.312Z,13000
2023-05-10T11:50:02.306Z,15000
2023-05-10T11:55:02.567Z,15000
2023-05-10T11:55:33.706Z,15000
2023-05-10T12:00:00.834Z,15000
2023-05-10T12:00:02.585Z,15000
2023-05-10T12:05:02.708Z,15000
2023-05-10T12:10:02.844Z,15000
2023-05-10T12:15:02.853Z,15000
2023-05-10T12:20:02.903Z,15000
2023-05-10T12:25:03.012Z,15000
2023-05-10T12:30:02.177Z,18000
2023-05-10T12:35:09.696Z,18000
2023-05-10T12:40:02.829Z,24000
2023-05-10T12:45:02.890Z,24000
2023-05-10T12:50:02.927Z,21000
2023-05-10T12:55:02.999Z,21000
2023-05-10T13:00:02.169Z,14000
2023-05-10T13:05:02.395Z,14000
2023-05-10T13:10:02.532Z,13000
2023-05-10T13:15:02.611Z,13000
2023-05-10T13:20:02.755Z,16000
2023-05-10T13:25:02.748Z,16000
2023-05-10T13:30:02.834Z,24000
2023-05-10T13:35:03.712Z,24000
2023-05-10T13:40:02.745Z,35000
2023-05-10T13:45:02.847Z,55000
2023-05-10T13:50:03.041Z,81000
2023-05-10T13:55:02.080Z,60000
2023-05-10T14:00:02.568Z,26000
2023-05-10T14:05:02.706Z,26000
2023-05-10T14:10:02.801Z,17000
2023-05-10T14:15:02.983Z,15000
2023-05-10T14:20:02.027Z,15000
2023-05-10T14:25:02.110Z,14000
2023-05-10T14:30:02.253Z,14000
2023-05-10T14:35:02.392Z,2000
2023-05-10T14:40:02.438Z,1000
2023-05-10T14:45:02.622Z,1000
2023-05-10T14:50:02.762Z,1000
2023-05-10T14:55:02.889Z,820
2023-05-10T15:00:03.063Z,947
2023-05-10T15:05:02.545Z,1000
2023-05-10T15:10:03.007Z,2000
2023-05-10T15:15:02.163Z,3000
2023-05-10T15:20:02.354Z,3000
2023-05-10T15:25:02.579Z,3000
2023-05-10T15:30:02.744Z,3000
2023-05-10T15:35:02.846Z,4000
2023-05-10T15:40:02.990Z,5000
2023-05-10T15:45:02.208Z,5000
2023-05-10T15:50:02.353Z,4000
2023-05-10T15:55:02.492Z,5000
2023-05-10T16:00:02.827Z,5000
2023-05-10T16:05:02.942Z,7000
2023-05-10T16:10:02.250Z,8000
2023-05-10T16:15:02.316Z,9000
2023-05-10T16:20:02.457Z,10000
2023-05-10T16:25:04.541Z,8000
2023-05-10T16:30:04.486Z,7000
2023-05-10T16:35:02.570Z,7000
2023-05-10T16:40:03.661Z,6000
2023-05-10T16:45:03.117Z,5000
2023-05-10T16:50:02.145Z,5000
2023-05-10T16:55:02.138Z,5000
2023-05-10T17:00:02.344Z,5000
2023-05-10T17:05:02.458Z,5000
2023-05-10T17:10:02.536Z,4000
2023-05-10T17:15:02.692Z,5000
2023-05-10T17:20:02.916Z,4000
2023-05-10T17:25:01.998Z,2000
2023-05-10T17:30:02.109Z,2000
2023-05-10T17:35:02.342Z,1000
2023-05-10T17:40:12.426Z,1000
2023-05-10T17:45:02.533Z,1000
2023-05-10T17:50:02.567Z,2000
2023-05-10T17:55:02.705Z,2000
2023-05-10T18:00:02.830Z,2000
2023-05-10T18:05:04.133Z,2000
2023-05-10T18:10:02.310Z,1000
2023-05-10T18:15:02.510Z,1000
2023-05-10T18:20:02.662Z,1000
2023-05-10T18:25:02.943Z,1000
2023-05-10T18:30:02.164Z,1000
2023-05-10T18:35:02.296Z,922
2023-05-10T18:40:02.416Z,795
2023-05-10T18:45:02.460Z,663
2023-05-10T18:50:02.519Z,599
2023-05-10T18:55:02.603Z,492
2023-05-10T19:00:02.720Z,341
2023-05-10T19:05:02.834Z,171
2023-05-10T19:10:02.890Z,100
2023-05-10T19:15:03.091Z,66
2023-05-10T19:20:02.626Z,44
2023-05-10T19:25:02.113Z,27
2023-05-10T19:30:02.158Z,17
2023-05-10T19:35:02.321Z,10
2023-05-10T19:40:02.403Z,5
2023-05-10T19:45:02.417Z,2
2023-05-10T19:50:02.433Z,1
2023-05-10T19:55:02.649Z,0
2023-05-10T20:00:02.800Z,0
2023-05-10T20:05:03.002Z,0
2023-05-10T20:10:02.119Z,0
2023-05-10T20:15:02.349Z,0
2023-05-10T20:20:02.653Z,0
2023-05-10T20:25:02.743Z,0
2023-05-10T20:30:02.906Z,0
2023-05-10T20:35:03.064Z,0
2023-05-10T20:40:02.120Z,0
2023-05-10T20:45:02.272Z,0
2023-05-10T20:50:02.360Z,0
2023-05-10T20:55:02.533Z,0
2023-05-10T21:00:02.709Z,0
2023-05-10T21:05:15.772Z,0
2023-05-10T21:10:08.862Z,0
2023-05-10T21:15:08.868Z,0
2023-05-10T21:20:08.882Z,0
2023-05-10T21:25:08.918Z,0
2023-05-10T21:30:07.954Z,0
2023-05-10T21:35:07.941Z,0
2023-05-10T21:40:07.987Z,0
2023-05-10T21:45:08.022Z,0
2023-05-10T21:50:08.003Z,0
2023-05-10T21:55:08.023Z,0
2023-05-10T22:00:08.044Z,0
2023-05-10T22:05:08.085Z,0
2023-05-10T22:10:08.076Z,0
2023-05-10T22:15:11.103Z,0
2023-05-10T22:20:08.261Z,0
2023-05-10T22:25:08.255Z,0
2023-05-10T22:30:08.313Z,0
2023-05-10T22:35:08.371Z,0
2023-05-10T22:40:08.588Z,0
2023-05-10T22:45:08.554Z,0
2023-05-10T22:50:08.589Z,0
2023-05-10T22:55:08.596Z,0
2023-05-10T23:01:15.800Z,0
2023-05-10T23:05:08.999Z,0
2023-05-10T23:10:08.183Z,0
2023-05-10T23:15:08.223Z,0
2023-05-10T23:20:08.186Z,0
2023-05-10T23:25:08.188Z,0
2023-05-10T23:30:08.181Z,0
2023-05-10T23:35:08.158Z,0
2023-05-10T23:40:08.220Z,0
2023-05-10T23:50:08.163Z,0
